createdAt,value
2019-04-21T00:01:59.700Z,94286.51
2019-04-21T00:04:48.336Z,94282.89
2019-04-21T00:07:26.424Z,94278.17
2019-04-21T00:10:06.449Z,94269.52
2019-04-21T00:12:35.920Z,94266.92
2019-04-21T00:15:03.547Z,94266.59
2019-04-21T00:17:29.892Z,94264.03
2019-04-21T00:20:15.547Z,94263.67
2019-04-21T00:22:52.106Z,94259.17
2019-04-21T00:25:28.735Z,94257.50
2019-04-21T00:28:12.272Z,94255.67
2019-04-21T00:30:44.233Z,94246.94
2019-04-21T00:33:08.129Z,94248.34
2019-04-21T00:35:40.403Z,94246.73
2019-04-21T00:38:24.956Z,94248.66
2019-04-21T00:41:11.384Z,94247.61
2019-04-21T00:43:32.944Z,94244.16
2019-04-21T00:46:02.253Z,94244.41
2019-04-21T00:48:47.593Z,94245.36
2019-04-21T00:51:34.372Z,94243.77
2019-04-21T00:54:04.408Z,94244.70
2019-04-21T00:56:34.155Z,94245.03
2019-04-21T00:59:05.755Z,94242.91
2019-04-21T01:01:43.682Z,94247.97
2019-04-21T01:04:18.161Z,94241.98
2019-04-21T01:07:00.744Z,94243.61
2019-04-21T01:09:26.174Z,94257.94
2019-04-21T01:12:05.496Z,94241.82
2019-04-21T01:14:45.562Z,94238.58
2019-04-21T01:17:14.574Z,94234.56
2019-04-21T01:19:39.768Z,94232.25
2019-04-21T01:21:58.965Z,94225.89
2019-04-21T01:24:36.151Z,94224.27
2019-04-21T01:27:15.831Z,94225.95
2019-04-21T01:29:59.743Z,94218.56
2019-04-21T01:32:46.978Z,94214.38
2019-04-21T01:35:18.747Z,94216.66
2019-04-21T01:37:49.660Z,94212.13
2019-04-21T01:40:29.604Z,94204.41
2019-04-21T01:42:56.302Z,94211.69
2019-04-21T01:45:27.717Z,94205.05
2019-04-21T01:48:01.169Z,94203.06
2019-04-21T01:50:36.435Z,94206.58
2019-04-21T01:53:26.044Z,94200.73
2019-04-21T01:55:58.838Z,94196.26
2019-04-21T01:58:24.484Z,94193.53
2019-04-21T02:01:00.866Z,94191.30
2019-04-21T02:06:17.061Z,94189.61
2019-04-21T02:08:51.449Z,94187.88
2019-04-21T02:11:43.233Z,94190.73
2019-04-21T02:14:05.696Z,94187.41
2019-04-21T02:16:42.235Z,94189.39
2019-04-21T02:19:09.134Z,94185.91
2019-04-21T02:27:14.971Z,94177.70
2019-04-21T02:29:56.668Z,94178.37
2019-04-21T02:32:37.534Z,94175.75
2019-04-21T02:37:55.513Z,94170.16
2019-04-21T02:40:21.265Z,94170.72
2019-04-21T02:43:07.493Z,94170.72
2019-04-21T02:50:36.203Z,94160.94
2019-04-21T02:53:21.098Z,94154.21
2019-04-21T02:55:44.769Z,94155.27
2019-04-21T03:03:52.497Z,94161.33
2019-04-21T03:06:53.798Z,94158.63
2019-04-21T03:09:31.761Z,94152.83
2019-04-21T03:12:07.085Z,94148.02
2019-04-21T03:19:51.887Z,94153.63
2019-04-21T03:25:21.454Z,94140.88
2019-04-21T03:27:49.655Z,94136.97
2019-04-21T03:33:09.548Z,94133.92
2019-04-21T03:35:49.148Z,94135.66
2019-04-21T03:37:43.625Z,94132.23
2019-04-21T03:40:18.687Z,94126.86
2019-04-21T03:42:59.120Z,94128.98
2019-04-21T03:45:46.313Z,94119.98
2019-04-21T03:48:09.377Z,94120.25
2019-04-21T03:50:45.437Z,94121.06
2019-04-21T03:53:18.727Z,94117.16
2019-04-21T03:56:01.038Z,94121.69
2019-04-21T03:58:41.464Z,94122.42
2019-04-21T04:01:19.747Z,94123.33
2019-04-21T04:14:42.476Z,94124.62
2019-04-21T04:17:11.669Z,94130.78
2019-04-21T04:20:01.460Z,94128.48
2019-04-21T04:22:19.448Z,94125.63
2019-04-21T04:24:57.875Z,94130.06
2019-04-21T04:30:08.117Z,94130.83
2019-04-21T04:32:38.689Z,94128.14
2019-04-21T04:35:14.459Z,94127.62
2019-04-21T04:43:05.143Z,94122.98
2019-04-21T04:45:40.609Z,94123.03
2019-04-21T04:48:15.145Z,94126.23
2019-04-21T04:50:49.762Z,94122.08
2019-04-21T04:53:31.191Z,94119.59
2019-04-21T04:56:00.912Z,94128.12
2019-04-21T04:58:44.015Z,94118.98
2019-04-21T05:01:14.642Z,94118.54
2019-04-21T05:06:30.560Z,94118.52
2019-04-21T05:11:30.952Z,94115.75
2019-04-21T05:14:02.685Z,94112.76
2019-04-21T05:16:48.137Z,94117.98
2019-04-21T05:21:43.895Z,94119.95
2019-04-21T05:24:00.842Z,94108.66
2019-04-21T05:26:41.953Z,94112.77
2019-04-21T05:29:10.987Z,94112.71
2019-04-21T05:31:56.997Z,94109.97
2019-04-21T05:34:31.866Z,94106.09
2019-04-21T05:37:10.702Z,94108.56
2019-04-21T05:39:42.390Z,94103.13
2019-04-21T05:42:09.067Z,94105.02
2019-04-21T05:45:02.980Z,94099.43
2019-04-21T05:47:39.680Z,94106.82
2019-04-21T05:50:08.786Z,94102.75
2019-04-21T05:52:51.624Z,94098.98
2019-04-21T05:55:35.984Z,94091.55
2019-04-21T05:58:21.418Z,94097.41
2019-04-21T06:00:59.459Z,94095.42
2019-04-21T06:03:16.405Z,94089.94
2019-04-21T06:08:27.070Z,94086.58
2019-04-21T06:11:00.220Z,94087.89
2019-04-21T06:13:42.888Z,94089.43
2019-04-21T06:16:08.846Z,94087.42
2019-04-21T06:18:48.809Z,94087.45
2019-04-21T06:21:16.338Z,94092.34
2019-04-21T06:23:49.785Z,94098.18
2019-04-21T06:26:51.796Z,94092.61
2019-04-21T06:29:02.995Z,94096.98
2019-04-21T06:32:02.316Z,94098.58
2019-04-21T06:34:16.748Z,94097.27
2019-04-21T06:37:19.211Z,94093.67
2019-04-21T06:39:40.495Z,94093.84
2019-04-21T06:42:09.149Z,94101.37
2019-04-21T06:44:54.049Z,94095.81
2019-04-21T06:47:29.974Z,94092.97
2019-04-21T06:49:57.811Z,94096.70
2019-04-21T06:55:10.295Z,94092.81
2019-04-21T06:57:39.054Z,94090.16
2019-04-21T07:00:13.765Z,94090.73
2019-04-21T07:02:53.477Z,94093.43
2019-04-21T07:05:26.466Z,94084.95
2019-04-21T07:08:18.252Z,94080.98
2019-04-21T07:10:33.805Z,94084.19
2019-04-21T07:13:03.644Z,94082.36
2019-04-21T07:15:45.962Z,94085.00
2019-04-21T07:18:25.334Z,94084.45
2019-04-21T07:20:53.137Z,94083.92
2019-04-21T07:23:24.109Z,94079.14
2019-04-21T07:26:00.714Z,94077.78
2019-04-21T07:28:46.026Z,94075.64
2019-04-21T07:31:09.939Z,94077.25
2019-04-21T07:33:53.453Z,94075.08
2019-04-21T07:36:21.640Z,94075.03
2019-04-21T07:38:50.293Z,94070.20
2019-04-21T07:41:20.038Z,94072.95
2019-04-21T07:43:53.508Z,94068.81
2019-04-21T07:46:25.719Z,94071.94
2019-04-21T07:49:14.035Z,94063.20
2019-04-21T07:52:03.106Z,94059.96
2019-04-21T07:54:37.465Z,94058.20
2019-04-21T07:56:56.076Z,94061.42
2019-04-21T07:59:46.120Z,94064.01
2019-04-21T08:02:20.359Z,94061.61
2019-04-21T08:05:05.593Z,94060.84
2019-04-21T08:07:30.737Z,94058.53
2019-04-21T08:09:58.719Z,94061.15
2019-04-21T08:12:35.145Z,94052.23
2019-04-21T08:15:15.710Z,94059.72
2019-04-21T08:17:41.469Z,94056.33
2019-04-21T08:20:12.269Z,94053.26
2019-04-21T08:22:51.716Z,94057.22
2019-04-21T08:25:27.398Z,94050.20
2019-04-21T08:27:59.783Z,94049.45
2019-04-21T08:30:39.343Z,94051.36
2019-04-21T08:33:23.388Z,94049.61
2019-04-21T08:36:05.958Z,94053.55
2019-04-21T08:38:20.044Z,94059.21
2019-04-21T08:40:56.318Z,94056.03
2019-04-21T08:43:36.978Z,94050.52
2019-04-21T08:46:09.695Z,94050.59
2019-04-21T08:48:48.033Z,94056.33
2019-04-21T08:56:40.335Z,94045.02
2019-04-21T08:59:02.234Z,94042.84
2019-04-21T09:01:36.440Z,94044.36
2019-04-21T09:04:13.305Z,94041.45
2019-04-21T09:09:23.957Z,94033.95
2019-04-21T09:11:53.847Z,94040.34
2019-04-21T09:14:33.867Z,94032.08
2019-04-21T09:17:00.475Z,94039.17
2019-04-21T09:22:11.831Z,94022.84
2019-04-21T09:24:50.158Z,94024.75
2019-04-21T09:27:21.810Z,94014.56
2019-04-21T09:29:47.928Z,94012.83
2019-04-21T09:32:19.664Z,94022.02
2019-04-21T09:34:49.283Z,94010.15
2019-04-21T09:37:32.953Z,94020.41
2019-04-21T09:39:59.106Z,94013.36
2019-04-21T09:42:40.095Z,94008.33
2019-04-21T09:45:10.154Z,94007.55
2019-04-21T09:47:52.510Z,94008.06
2019-04-21T09:50:17.378Z,93995.77
2019-04-21T09:52:57.893Z,93995.50
2019-04-21T09:55:32.056Z,94000.30
2019-04-21T09:58:10.065Z,93999.45
2019-04-21T10:00:46.410Z,93995.29
2019-04-21T10:03:12.465Z,93986.55
2019-04-21T10:05:45.123Z,93988.79
2019-04-21T10:08:18.825Z,93990.30
2019-04-21T10:10:54.714Z,93984.97
2019-04-21T10:13:27.424Z,93981.06
2019-04-21T10:16:18.205Z,93978.36
2019-04-21T10:18:52.318Z,93975.13
2019-04-21T10:21:27.644Z,93973.07
2019-04-21T10:24:01.940Z,93971.37
2019-04-21T10:26:35.692Z,93962.83
2019-04-21T10:29:15.297Z,93969.95
2019-04-21T10:31:43.325Z,93970.14
2019-04-21T10:34:17.039Z,93963.48
2019-04-21T10:36:51.180Z,93961.34
2019-04-21T10:39:24.868Z,93959.83
2019-04-21T10:41:57.666Z,93948.01
2019-04-21T10:44:31.525Z,93952.75
2019-04-21T10:47:08.717Z,93954.27
2019-04-21T10:49:44.799Z,93950.95
2019-04-21T10:52:22.874Z,93945.31
2019-04-21T10:55:11.229Z,93941.16
2019-04-21T10:57:34.874Z,93942.44
2019-04-21T11:00:10.774Z,93939.55
2019-04-21T11:02:45.085Z,93935.08
2019-04-21T11:05:18.784Z,93933.40
2019-04-21T11:08:08.916Z,93931.77
2019-04-21T11:10:31.979Z,93932.06
2019-04-21T11:13:05.365Z,93922.35
2019-04-21T11:15:39.278Z,93923.28
2019-04-21T11:18:12.229Z,93920.66
2019-04-21T11:20:45.093Z,93915.52
2019-04-21T11:23:21.003Z,93911.13
2019-04-21T11:25:53.918Z,93912.47
2019-04-21T11:28:27.335Z,93917.70
2019-04-21T11:31:00.635Z,93903.19
2019-04-21T11:33:33.751Z,93910.62
2019-04-21T11:36:07.023Z,93903.77
2019-04-21T11:39:05.057Z,93902.56
2019-04-21T11:41:21.650Z,93905.60
2019-04-21T11:43:55.327Z,93899.64
2019-04-21T11:46:28.638Z,93906.77
2019-04-21T11:49:02.480Z,93904.06
2019-04-21T11:51:35.627Z,93906.70
2019-04-21T11:54:10.991Z,93900.83
2019-04-21T11:56:45.094Z,93894.00
2019-04-21T11:59:19.542Z,93898.64
2019-04-21T12:01:54.033Z,93895.77
2019-04-21T12:04:27.572Z,93899.39
2019-04-21T12:07:01.901Z,93887.58
2019-04-21T12:09:35.443Z,93881.76
2019-04-21T12:12:09.584Z,93877.50
2019-04-21T12:14:43.940Z,93875.62
2019-04-21T12:17:18.316Z,93877.14
2019-04-21T12:19:53.126Z,93879.28
2019-04-21T12:22:29.948Z,93875.45
2019-04-21T12:25:00.878Z,93864.01
2019-04-21T12:27:35.970Z,93861.50
2019-04-21T12:30:09.725Z,93859.11
2019-04-21T12:33:00.113Z,93861.08
2019-04-21T12:35:33.588Z,93857.22
2019-04-21T12:38:08.781Z,93847.83
2019-04-21T12:40:42.645Z,93852.13
2019-04-21T12:43:16.792Z,93844.63
2019-04-21T12:45:51.734Z,93843.55
2019-04-21T12:48:26.210Z,93844.96
2019-04-21T12:50:59.780Z,93846.56
2019-04-21T12:53:33.958Z,93830.38
2019-04-21T12:56:07.469Z,93829.93
2019-04-21T12:58:41.519Z,93830.65
2019-04-21T13:01:14.725Z,93832.08
2019-04-21T13:03:48.070Z,93822.88
2019-04-21T13:06:21.364Z,93827.07
2019-04-21T13:09:01.459Z,93820.51
2019-04-21T13:11:29.187Z,93814.19
2019-04-21T13:14:02.148Z,93814.66
2019-04-21T13:16:35.051Z,93814.02
2019-04-21T13:19:09.343Z,93809.66
2019-04-21T13:21:43.147Z,93801.58
2019-04-21T13:24:16.067Z,93797.71
2019-04-21T13:26:55.587Z,93797.23
2019-04-21T13:29:23.947Z,93804.80
2019-04-21T13:31:58.390Z,93796.75
2019-04-21T13:34:31.848Z,93788.39
2019-04-21T13:37:05.740Z,93791.09
2019-04-21T13:40:01.512Z,93789.67
2019-04-21T13:42:42.012Z,93778.14
2019-04-21T13:45:10.310Z,93784.06
2019-04-21T13:47:43.209Z,93771.14
2019-04-21T13:50:17.249Z,93776.12
2019-04-21T13:52:51.110Z,93770.44
2019-04-21T13:55:25.535Z,93765.97
2019-04-21T13:57:58.989Z,93766.73
2019-04-21T14:00:31.925Z,93765.09
2019-04-21T14:03:04.969Z,93758.86
2019-04-21T14:05:38.261Z,93755.75
2019-04-21T14:08:11.614Z,93753.27
2019-04-21T14:10:44.611Z,93745.73
2019-04-21T14:13:18.465Z,93755.08
2019-04-21T14:15:51.898Z,93743.93
2019-04-21T14:18:26.878Z,93742.48
2019-04-21T14:21:00.990Z,93744.59
2019-04-21T14:23:42.961Z,93739.69
2019-04-21T14:26:08.769Z,93738.56
2019-04-21T14:28:42.956Z,93738.57
2019-04-21T14:31:16.602Z,93734.97
2019-04-21T14:33:50.025Z,93733.11
2019-04-21T14:36:23.157Z,93732.34
2019-04-21T14:38:56.643Z,93734.92
2019-04-21T14:41:30.412Z,93730.20
2019-04-21T14:44:04.679Z,93735.81
2019-04-21T14:46:39.517Z,93728.35
2019-04-21T14:49:17.411Z,93730.32
2019-04-21T14:51:52.776Z,93733.28
2019-04-21T14:54:33.021Z,93724.45
2019-04-21T14:57:07.197Z,93723.98
2019-04-21T14:59:40.474Z,93722.41
2019-04-21T15:02:14.063Z,93720.67
2019-04-21T15:04:46.964Z,93727.69
2019-04-21T15:07:21.246Z,93727.42
2019-04-21T15:10:04.785Z,93719.91
2019-04-21T15:12:29.908Z,93718.56
2019-04-21T15:15:03.055Z,93713.06
2019-04-21T15:17:35.969Z,93716.49
2019-04-21T15:20:13.481Z,93718.56
2019-04-21T15:22:44.315Z,93712.64
2019-04-21T15:25:18.385Z,93712.30
2019-04-21T15:27:52.819Z,93707.95
2019-04-21T15:30:26.852Z,93708.80
2019-04-21T15:33:00.420Z,93710.63
2019-04-21T15:35:35.189Z,93702.60
2019-04-21T15:38:09.780Z,93710.52
2019-04-21T15:40:51.492Z,93701.91
2019-04-21T15:43:18.237Z,93702.31
2019-04-21T15:45:52.906Z,93693.84
2019-04-21T15:48:26.727Z,93695.94
2019-04-21T15:51:04.867Z,93698.42
2019-04-21T15:53:37.503Z,93692.62
2019-04-21T15:56:22.628Z,93688.23
2019-04-21T15:59:04.362Z,93686.12
2019-04-21T16:01:40.705Z,93684.78
2019-04-21T16:04:14.703Z,93684.66
2019-04-21T16:06:48.149Z,93688.09
2019-04-21T16:09:22.362Z,93680.50
2019-04-21T16:11:55.781Z,93681.81
2019-04-21T16:14:29.687Z,93677.52
2019-04-21T16:17:03.335Z,93678.18
2019-04-21T16:19:38.160Z,93671.65
2019-04-21T16:22:12.628Z,93669.50
2019-04-21T16:24:47.965Z,93672.88
2019-04-21T16:27:21.389Z,93673.69
2019-04-21T16:29:54.877Z,93668.14
2019-04-21T16:32:28.054Z,93670.52
2019-04-21T16:35:07.172Z,93670.54
2019-04-21T16:37:39.552Z,93661.95
2019-04-21T16:40:13.743Z,93667.91
2019-04-21T16:42:48.011Z,93659.66
2019-04-21T16:45:22.940Z,93657.66
2019-04-21T16:47:57.478Z,93651.17
2019-04-21T16:50:31.865Z,93658.11
2019-04-21T16:53:23.904Z,93649.20
2019-04-21T16:55:57.406Z,93651.02
2019-04-21T16:58:36.360Z,93651.96
2019-04-21T17:01:27.405Z,93653.92
2019-04-21T17:04:00.641Z,93644.36
2019-04-21T17:06:33.592Z,93649.50
2019-04-21T17:09:06.578Z,93648.50
2019-04-21T17:11:41.946Z,93643.34
2019-04-21T17:14:33.026Z,93650.77
2019-04-21T17:17:15.759Z,93647.91
2019-04-21T17:19:29.860Z,93652.20
2019-04-21T17:21:59.694Z,93648.85
2019-04-21T17:24:32.907Z,93634.25
2019-04-21T17:27:07.052Z,93631.38
2019-04-21T17:29:40.887Z,93638.23
2019-04-21T17:32:14.526Z,93639.77
2019-04-21T17:34:47.961Z,93637.25
2019-04-21T17:37:24.969Z,93638.33
2019-04-21T17:39:56.835Z,93640.80
2019-04-21T17:42:42.945Z,93641.27
2019-04-21T17:45:05.490Z,93641.34
2019-04-21T17:47:47.772Z,93646.42
2019-04-21T17:50:19.879Z,93650.42
2019-04-21T17:53:06.547Z,93652.48
2019-04-21T17:55:40.583Z,93648.98
2019-04-21T17:58:29.188Z,93653.43
2019-04-21T18:01:12.783Z,93654.51
2019-04-21T18:03:53.554Z,93656.04
2019-04-21T18:06:14.406Z,93657.14
2019-04-21T18:08:51.920Z,93653.82
2019-04-21T18:11:18.089Z,93656.84
2019-04-21T18:13:43.972Z,93652.34
2019-04-21T18:16:25.318Z,93656.98
2019-04-21T18:18:52.943Z,93657.05
2019-04-21T18:21:30.709Z,93662.73
2019-04-21T18:24:12.720Z,93668.95
2019-04-21T18:26:49.135Z,93668.09
2019-04-21T18:29:15.854Z,93670.41
2019-04-21T18:31:50.921Z,93669.92
2019-04-21T18:34:33.858Z,93685.01
2019-04-21T18:37:14.204Z,93676.95
2019-04-21T18:40:05.585Z,93679.50
2019-04-21T18:42:52.938Z,93683.61
2019-04-21T18:48:04.873Z,93691.92
2019-04-21T18:50:54.631Z,93689.97
2019-04-21T18:53:46.659Z,93691.19
2019-04-21T18:56:08.274Z,93689.59
2019-04-21T18:58:40.301Z,93688.88
2019-04-21T19:01:20.618Z,93692.45
2019-04-21T19:03:51.140Z,93689.76
2019-04-21T19:06:40.603Z,93694.42
2019-04-21T19:09:15.065Z,93696.17
2019-04-21T19:11:51.853Z,93694.73
2019-04-21T19:17:15.914Z,93693.66
2019-04-21T19:22:09.025Z,93699.38
2019-04-21T19:24:48.479Z,93699.95
2019-04-21T19:27:22.788Z,93698.98
2019-04-21T19:32:30.313Z,93703.30
2019-04-21T19:34:47.379Z,93701.10
2019-04-21T19:37:24.627Z,93703.45
2019-04-21T19:40:09.618Z,93698.77
2019-04-21T19:42:41.426Z,93705.33
2019-04-21T19:45:17.585Z,93699.91
2019-04-21T19:47:56.681Z,93695.08
2019-04-21T19:50:35.250Z,93696.44
2019-04-21T19:53:00.888Z,93707.20
2019-04-21T19:55:24.293Z,93696.89
2019-04-21T19:57:58.908Z,93694.83
2019-04-21T20:00:32.556Z,93698.67
2019-04-21T20:03:06.334Z,93699.39
2019-04-21T20:05:47.582Z,93696.70
2019-04-21T20:08:27.776Z,93701.48
2019-04-21T20:11:11.922Z,93697.66
2019-04-21T20:13:53.155Z,93698.64
2019-04-21T20:16:21.554Z,93705.08
2019-04-21T20:18:40.689Z,93702.34
2019-04-21T20:21:08.174Z,93707.45
2019-04-21T20:23:43.226Z,93703.99
2019-04-21T20:26:17.379Z,93693.19
2019-04-21T20:29:02.437Z,93692.95
2019-04-21T20:31:41.855Z,93687.34
2019-04-21T20:34:17.790Z,93686.30
2019-04-21T20:37:00.358Z,93684.61
2019-04-21T20:39:16.632Z,93682.88
2019-04-21T20:41:57.512Z,93689.78
2019-04-21T20:44:37.380Z,93681.12
2019-04-21T20:47:07.575Z,93680.73
2019-04-21T20:49:40.866Z,93680.72
2019-04-21T20:52:24.257Z,93677.25
2019-04-21T20:54:47.813Z,93672.72
2019-04-21T20:57:26.373Z,93678.84
2019-04-21T21:00:05.737Z,93676.95
2019-04-21T21:02:49.081Z,93676.08
2019-04-21T21:05:10.490Z,93668.63
2019-04-21T21:07:55.966Z,93672.41
2019-04-21T21:10:20.885Z,93675.70
2019-04-21T21:13:12.818Z,93675.73
2019-04-21T21:15:30.283Z,93669.22
2019-04-21T21:18:22.784Z,93675.45
2019-04-21T21:20:43.006Z,93676.43
2019-04-21T21:23:11.567Z,93676.09
2019-04-21T21:25:50.497Z,93674.75
2019-04-21T21:28:25.117Z,93671.95
2019-04-21T21:31:02.815Z,93669.45
2019-04-21T21:33:37.336Z,93672.63
2019-04-21T21:36:16.640Z,93671.02
2019-04-21T21:38:53.135Z,93662.55
2019-04-21T21:41:15.608Z,93661.80
2019-04-21T21:43:39.213Z,93656.22
2019-04-21T21:46:31.219Z,93657.11
2019-04-21T21:48:56.965Z,93651.78
2019-04-21T21:51:33.143Z,93654.10
2019-04-21T21:53:54.865Z,93648.86
2019-04-21T21:56:28.880Z,93650.03
2019-04-21T21:59:12.959Z,93643.33
2019-04-21T22:01:44.039Z,93643.23
2019-04-21T22:04:19.214Z,93639.16
2019-04-21T22:06:57.542Z,93642.86
2019-04-21T22:09:22.352Z,93642.31
2019-04-21T22:12:00.522Z,93646.83
2019-04-21T22:14:36.916Z,93636.66
2019-04-21T22:17:22.093Z,93636.28
2019-04-21T22:20:02.982Z,93632.91
2019-04-21T22:22:32.525Z,93635.10
2019-04-21T22:25:02.743Z,93632.17
2019-04-21T22:27:25.630Z,93634.00
2019-04-21T22:30:03.213Z,93624.56
2019-04-21T22:32:34.983Z,93627.16
2019-04-21T22:35:12.521Z,93618.58
2019-04-21T22:37:56.059Z,93615.48
2019-04-21T22:40:29.526Z,93610.78
2019-04-21T22:43:04.915Z,93619.05
2019-04-21T22:45:27.288Z,93614.56
2019-04-21T22:48:07.478Z,93611.88
2019-04-21T22:50:35.288Z,93614.81
2019-04-21T22:53:10.236Z,93619.64
2019-04-21T22:55:43.171Z,93621.60
2019-04-21T22:58:23.625Z,93612.09
2019-04-21T23:00:56.180Z,93611.38
2019-04-21T23:03:28.162Z,93614.84
2019-04-21T23:06:07.406Z,93613.98
2019-04-21T23:08:40.057Z,93607.58
2019-04-21T23:11:12.358Z,93608.63
2019-04-21T23:13:50.528Z,93612.17
2019-04-21T23:16:21.504Z,93608.70
2019-04-21T23:19:14.319Z,93605.81
2019-04-21T23:21:49.755Z,93601.50
2019-04-21T23:24:26.488Z,93604.19
2019-04-21T23:26:49.400Z,93601.34
2019-04-21T23:29:39.331Z,93594.11
2019-04-21T23:32:03.001Z,93590.75
2019-04-21T23:34:28.249Z,93586.81
2019-04-21T23:37:02.286Z,93580.95
2019-04-21T23:39:35.368Z,93575.92
2019-04-21T23:42:06.915Z,93576.17
2019-04-21T23:44:47.050Z,93571.13
2019-04-21T23:47:30.307Z,93564.98
2019-04-21T23:49:59.534Z,93563.14
2019-04-21T23:52:25.518Z,93569.20
2019-04-21T23:54:59.448Z,93567.03
2019-04-21T23:57:38.934Z,93559.42
